createdAt,value
2022-10-30T00:00:55.364Z,64.25
2022-10-30T00:01:55.542Z,67.79
2022-10-30T00:02:55.756Z,63.91
2022-10-30T00:03:55.367Z,58.80
2022-10-30T00:04:55.359Z,58.16
2022-10-30T00:05:55.349Z,58.25
2022-10-30T00:06:55.351Z,63.68
2022-10-30T00:07:55.578Z,58.19
2022-10-30T00:08:55.350Z,58.00
2022-10-30T00:09:55.343Z,58.17
2022-10-30T00:10:55.325Z,58.43
2022-10-30T00:11:55.313Z,58.49
2022-10-30T00:12:55.322Z,63.03
2022-10-30T00:13:55.332Z,58.26
2022-10-30T00:14:55.300Z,58.77
2022-10-30T00:15:55.294Z,64.59
2022-10-30T00:16:55.277Z,61.78
2022-10-30T00:17:55.589Z,68.38
2022-10-30T00:18:55.295Z,61.63
2022-10-30T00:19:55.279Z,58.61
2022-10-30T00:20:55.304Z,62.90
2022-10-30T00:23:42.167Z,60.82
2022-10-30T00:24:42.066Z,65.26
2022-10-30T00:25:42.054Z,59.59
2022-10-30T00:26:42.047Z,59.87
2022-10-30T00:27:42.041Z,64.84
2022-10-30T00:28:42.025Z,65.35
2022-10-30T00:29:42.041Z,59.11
2022-10-30T00:30:42.014Z,64.76
2022-10-30T00:31:42.015Z,58.47
2022-10-30T00:32:41.998Z,60.36
2022-10-30T00:33:42.017Z,63.31
2022-10-30T00:34:41.999Z,64.23
2022-10-30T00:35:42.103Z,59.49
2022-10-30T00:36:41.991Z,63.24
2022-10-30T00:37:41.985Z,64.91
2022-10-30T00:38:41.973Z,58.26
2022-10-30T00:39:41.977Z,58.02
2022-10-30T00:40:41.970Z,58.15
2022-10-30T00:41:42.067Z,57.74
2022-10-30T00:42:41.952Z,57.61
2022-10-30T00:43:41.934Z,57.66
2022-10-30T00:44:41.940Z,57.61
2022-10-30T00:45:41.938Z,57.89
2022-10-30T00:46:41.915Z,57.86
2022-10-30T00:47:42.040Z,57.95
2022-10-30T00:48:41.902Z,63.97
2022-10-30T00:49:41.896Z,58.51
2022-10-30T00:50:41.891Z,63.09
2022-10-30T00:51:41.897Z,58.01
2022-10-30T00:52:41.888Z,62.86
2022-10-30T00:53:41.911Z,58.95
2022-10-30T00:54:41.868Z,62.40
2022-10-30T00:55:41.875Z,57.83
2022-10-30T00:56:41.857Z,58.07
2022-10-30T00:57:42.983Z,64.78
2022-10-30T00:58:43.022Z,58.10
2022-10-30T00:59:42.971Z,58.29
2022-10-30T01:00:42.948Z,58.59
2022-10-30T01:01:43.075Z,65.10
2022-10-30T01:02:43.025Z,60.45
2022-10-30T01:03:42.929Z,58.01
2022-10-30T01:04:42.948Z,57.77
2022-10-30T01:05:42.911Z,57.61
2022-10-30T01:06:42.911Z,57.72
2022-10-30T01:07:42.906Z,59.03
2022-10-30T01:08:43.100Z,67.15
2022-10-30T01:09:42.926Z,58.90
2022-10-30T01:10:42.893Z,59.23
2022-10-30T01:11:42.895Z,57.83
2022-10-30T01:12:42.870Z,57.63
2022-10-30T01:13:42.869Z,57.51
2022-10-30T01:14:42.857Z,57.74
2022-10-30T01:15:43.002Z,63.31
2022-10-30T01:16:42.838Z,58.59
2022-10-30T01:17:42.850Z,57.68
2022-10-30T01:18:42.917Z,63.12
2022-10-30T01:19:42.838Z,59.07
2022-10-30T01:20:42.833Z,63.96
2022-10-30T01:21:42.809Z,58.46
2022-10-30T01:22:42.813Z,59.33
2022-10-30T01:23:42.791Z,57.73
2022-10-30T01:24:42.813Z,58.20
2022-10-30T01:25:42.792Z,66.43
2022-10-30T01:26:42.890Z,63.81
2022-10-30T01:27:42.774Z,57.77
2022-10-30T01:28:42.767Z,57.81
2022-10-30T01:29:42.765Z,58.27
2022-10-30T01:30:42.762Z,65.12
2022-10-30T01:31:42.867Z,59.28
2022-10-30T01:32:42.751Z,64.48
2022-10-30T01:33:42.736Z,57.98
2022-10-30T01:35:43.732Z,57.35
2022-10-30T01:36:42.708Z,64.20
2022-10-30T01:37:42.830Z,57.70
2022-10-30T01:38:42.720Z,57.66
2022-10-30T01:39:42.693Z,57.37
2022-10-30T01:40:42.691Z,57.27
2022-10-30T01:41:42.699Z,57.45
2022-10-30T01:42:42.723Z,58.06
2022-10-30T01:43:42.699Z,58.59
2022-10-30T01:44:42.664Z,64.97
2022-10-30T01:45:42.662Z,58.56
2022-10-30T01:46:42.655Z,58.50
2022-10-30T01:47:42.642Z,64.79
2022-10-30T01:48:42.753Z,62.76
2022-10-30T01:49:42.631Z,58.05
2022-10-30T01:50:42.630Z,57.73
2022-10-30T01:51:42.638Z,57.70
2022-10-30T01:52:42.604Z,57.89
2022-10-30T01:53:42.718Z,57.88
2022-10-30T01:54:42.597Z,62.83
2022-10-30T01:55:42.596Z,59.34
2022-10-30T01:56:42.595Z,63.91
2022-10-30T01:57:42.585Z,59.63
2022-10-30T01:58:42.583Z,59.15
2022-10-30T01:59:42.677Z,58.15
2022-10-30T02:00:42.569Z,63.04
2022-10-30T02:01:42.672Z,58.06
2022-10-30T02:02:42.714Z,58.04
2022-10-30T02:03:42.545Z,58.64
2022-10-30T02:04:42.655Z,63.82
2022-10-30T02:05:42.553Z,58.00
2022-10-30T02:06:42.542Z,57.88
2022-10-30T02:07:42.529Z,63.83
2022-10-30T02:08:42.529Z,58.30
2022-10-30T02:09:42.520Z,58.21
2022-10-30T02:10:42.619Z,63.87
2022-10-30T02:11:42.505Z,63.23
2022-10-30T02:12:42.491Z,58.05
2022-10-30T02:13:42.492Z,57.85
2022-10-30T02:14:42.491Z,62.77
2022-10-30T02:15:42.599Z,57.85
2022-10-30T02:16:42.477Z,58.49
2022-10-30T02:17:42.822Z,66.06
2022-10-30T02:18:42.489Z,64.98
2022-10-30T02:19:42.450Z,64.47
2022-10-30T02:20:42.432Z,64.16
2022-10-30T02:21:42.564Z,64.16
2022-10-30T02:22:42.520Z,57.87
2022-10-30T02:23:42.420Z,57.73
2022-10-30T02:24:42.421Z,58.13
2022-10-30T02:25:42.407Z,64.07
2022-10-30T02:26:42.430Z,57.72
2022-10-30T02:27:42.389Z,57.93
2022-10-30T02:28:42.393Z,64.58
2022-10-30T02:29:42.386Z,58.00
2022-10-30T02:30:42.379Z,60.02
2022-10-30T02:31:42.381Z,59.71
2022-10-30T02:32:42.382Z,57.69
2022-10-30T02:33:42.367Z,57.75
2022-10-30T02:34:42.351Z,58.24
2022-10-30T02:35:42.352Z,65.25
2022-10-30T02:36:42.333Z,57.80
2022-10-30T02:37:42.366Z,57.76
2022-10-30T02:38:42.381Z,58.14
2022-10-30T02:39:42.323Z,57.87
2022-10-30T02:40:42.327Z,65.74
2022-10-30T02:41:42.311Z,58.24
2022-10-30T02:42:42.302Z,57.83
2022-10-30T02:43:42.306Z,58.00
2022-10-30T02:44:42.290Z,64.36
2022-10-30T02:45:42.286Z,57.96
2022-10-30T02:46:42.285Z,57.82
2022-10-30T02:47:42.267Z,57.79
2022-10-30T02:48:42.290Z,64.79
2022-10-30T02:49:42.264Z,58.28
2022-10-30T02:50:42.255Z,57.64
2022-10-30T02:51:42.243Z,57.63
2022-10-30T02:52:42.236Z,57.58
2022-10-30T02:53:42.220Z,57.81
2022-10-30T02:54:42.252Z,57.62
2022-10-30T02:55:42.241Z,57.60
2022-10-30T02:56:42.228Z,57.72
2022-10-30T02:57:42.209Z,63.77
2022-10-30T02:58:42.202Z,58.49
2022-10-30T02:59:42.211Z,58.10
2022-10-30T03:00:42.181Z,57.88
2022-10-30T03:01:42.348Z,58.49
2022-10-30T03:02:42.214Z,64.07
2022-10-30T03:03:42.164Z,58.62
2022-10-30T03:04:42.173Z,63.14
2022-10-30T03:05:42.182Z,58.15
2022-10-30T03:06:42.142Z,58.41
2022-10-30T03:07:42.139Z,57.80
2022-10-30T03:08:42.138Z,57.94
2022-10-30T03:09:42.124Z,63.78
2022-10-30T03:10:42.136Z,63.16
2022-10-30T03:11:42.132Z,61.06
2022-10-30T03:12:42.100Z,57.91
2022-10-30T03:13:42.119Z,58.47
2022-10-30T03:14:42.087Z,57.53
2022-10-30T03:15:42.086Z,57.60
2022-10-30T03:16:42.175Z,57.83
2022-10-30T03:18:42.066Z,63.30
2022-10-30T03:19:42.063Z,57.50
2022-10-30T03:20:42.063Z,57.77
2022-10-30T03:21:42.086Z,58.34
2022-10-30T03:22:42.036Z,64.82
2022-10-30T03:23:42.023Z,64.31
2022-10-30T03:24:42.027Z,69.23
2022-10-30T03:25:42.043Z,62.69
2022-10-30T03:26:42.009Z,62.15
2022-10-30T03:27:42.144Z,62.84
2022-10-30T03:28:42.002Z,66.94
2022-10-30T03:29:42.012Z,57.95
2022-10-30T03:30:42.012Z,57.98
2022-10-30T03:31:41.998Z,62.79
2022-10-30T03:32:42.011Z,57.71
2022-10-30T03:33:41.979Z,57.64
2022-10-30T03:34:41.973Z,58.80
2022-10-30T03:35:41.979Z,58.37
2022-10-30T03:36:41.946Z,57.77
2022-10-30T03:37:41.956Z,57.54
2022-10-30T03:38:42.068Z,57.51
2022-10-30T03:39:41.931Z,58.02
2022-10-30T03:40:41.943Z,64.09
2022-10-30T03:41:41.917Z,58.85
2022-10-30T03:42:41.932Z,58.24
2022-10-30T03:43:42.036Z,58.09
2022-10-30T03:44:41.913Z,58.15
2022-10-30T03:45:41.916Z,58.24
2022-10-30T03:46:41.896Z,58.34
2022-10-30T03:47:41.892Z,58.20
2022-10-30T03:48:41.897Z,63.48
2022-10-30T03:49:41.906Z,57.69
2022-10-30T03:50:41.872Z,58.18
2022-10-30T03:51:41.859Z,58.06
2022-10-30T03:52:41.872Z,58.11
2022-10-30T03:53:41.849Z,57.84
2022-10-30T03:54:41.976Z,57.66
2022-10-30T03:55:41.828Z,59.51
2022-10-30T03:56:41.828Z,66.86
2022-10-30T03:57:41.834Z,62.52
2022-10-30T03:58:41.816Z,61.63
2022-10-30T03:59:41.836Z,59.96
2022-10-30T04:00:41.820Z,59.39
2022-10-30T04:01:42.004Z,57.73
2022-10-30T04:02:41.768Z,59.38
2022-10-30T04:03:41.777Z,60.98
2022-10-30T04:04:41.784Z,65.13
2022-10-30T04:05:41.796Z,60.99
2022-10-30T04:06:41.766Z,64.88
2022-10-30T04:07:41.745Z,64.33
2022-10-30T04:08:41.748Z,59.65
2022-10-30T04:09:41.745Z,59.52
2022-10-30T04:10:41.796Z,68.67
2022-10-30T04:11:41.844Z,61.25
2022-10-30T04:12:41.741Z,58.91
2022-10-30T04:13:41.723Z,58.25
2022-10-30T04:14:41.713Z,64.60
2022-10-30T04:15:41.731Z,58.13
2022-10-30T04:16:41.740Z,57.87
2022-10-30T04:17:41.699Z,58.27
2022-10-30T04:18:41.676Z,57.92
2022-10-30T04:19:41.678Z,57.54
2022-10-30T04:20:41.690Z,65.10
2022-10-30T04:21:41.683Z,58.08
2022-10-30T04:22:41.764Z,65.49
2022-10-30T04:23:41.663Z,58.11
2022-10-30T04:24:41.701Z,58.44
2022-10-30T04:25:41.656Z,62.10
2022-10-30T04:26:41.637Z,57.52
2022-10-30T04:27:41.742Z,64.68
2022-10-30T04:28:41.617Z,63.34
2022-10-30T04:29:41.629Z,68.25
2022-10-30T04:30:41.609Z,57.94
2022-10-30T04:31:41.612Z,59.33
2022-10-30T04:32:41.599Z,60.31
2022-10-30T04:33:41.739Z,62.75
2022-10-30T04:34:41.584Z,62.98
2022-10-30T04:35:41.581Z,63.30
2022-10-30T04:36:41.576Z,62.80
2022-10-30T04:37:41.586Z,58.28
2022-10-30T04:38:41.670Z,57.86
2022-10-30T04:39:45.461Z,65.06
2022-10-30T04:40:41.557Z,60.72
2022-10-30T04:41:41.541Z,63.85
2022-10-30T04:42:41.539Z,63.66
2022-10-30T04:43:41.530Z,64.16
2022-10-30T04:44:41.564Z,66.16
2022-10-30T04:45:41.517Z,59.81
2022-10-30T04:46:41.536Z,58.89
2022-10-30T04:47:41.510Z,68.52
2022-10-30T04:48:41.496Z,63.24
2022-10-30T04:49:41.512Z,65.57
2022-10-30T04:50:41.501Z,58.61
2022-10-30T04:51:41.500Z,58.39
2022-10-30T04:52:41.478Z,57.80
2022-10-30T04:53:41.485Z,57.97
2022-10-30T04:54:41.481Z,63.73
2022-10-30T04:55:41.579Z,57.94
2022-10-30T04:56:41.462Z,58.76
2022-10-30T04:57:41.436Z,65.42
2022-10-30T04:58:41.445Z,62.11
2022-10-30T04:59:41.445Z,59.48
2022-10-30T05:00:41.523Z,65.55
2022-10-30T05:01:41.550Z,66.70
2022-10-30T05:02:41.628Z,58.20
2022-10-30T05:03:41.415Z,58.45
2022-10-30T05:04:41.396Z,57.43
2022-10-30T05:05:41.387Z,58.28
2022-10-30T05:06:41.407Z,69.00
2022-10-30T05:07:41.397Z,65.54
2022-10-30T05:08:41.369Z,63.32
2022-10-30T05:09:41.352Z,66.76
2022-10-30T05:10:41.368Z,61.04
2022-10-30T05:11:41.394Z,63.32
2022-10-30T05:12:41.360Z,59.16
2022-10-30T05:13:41.339Z,58.79
2022-10-30T05:14:41.358Z,58.68
2022-10-30T05:15:41.339Z,61.44
2022-10-30T05:16:41.326Z,61.74
2022-10-30T05:17:41.477Z,60.84
2022-10-30T05:18:41.359Z,67.01
2022-10-30T05:19:41.293Z,63.71
2022-10-30T05:20:41.306Z,62.03
2022-10-30T05:21:41.291Z,61.90
2022-10-30T05:22:41.303Z,63.93
2022-10-30T05:23:41.276Z,61.77
2022-10-30T05:24:41.282Z,66.02
2022-10-30T05:25:41.267Z,65.90
2022-10-30T05:26:41.266Z,60.00
2022-10-30T05:27:41.252Z,72.32
2022-10-30T05:28:42.272Z,63.63
2022-10-30T05:29:41.224Z,73.77
2022-10-30T05:30:41.241Z,65.48
2022-10-30T05:31:41.215Z,62.13
2022-10-30T05:32:41.222Z,59.82
2022-10-30T05:33:41.206Z,63.85
2022-10-30T05:34:41.215Z,59.15
2022-10-30T05:35:41.204Z,58.20
2022-10-30T05:36:41.196Z,59.76
2022-10-30T05:37:41.192Z,67.50
2022-10-30T05:38:41.194Z,60.32
2022-10-30T05:39:41.204Z,58.78
2022-10-30T05:40:41.157Z,66.26
2022-10-30T05:41:41.164Z,60.93
2022-10-30T05:42:41.162Z,62.67
2022-10-30T05:43:41.142Z,64.65
2022-10-30T05:44:59.931Z,61.77
2022-10-30T05:45:43.156Z,60.99
2022-10-30T05:46:41.133Z,72.75
2022-10-30T05:47:41.130Z,64.36
2022-10-30T05:48:41.118Z,60.33
2022-10-30T05:49:41.133Z,60.25
2022-10-30T05:50:41.116Z,58.88
2022-10-30T05:51:41.097Z,60.71
2022-10-30T05:52:41.085Z,64.76
2022-10-30T05:53:41.085Z,58.18
2022-10-30T05:54:41.071Z,63.66
2022-10-30T05:55:41.170Z,57.77
2022-10-30T05:56:41.070Z,58.31
2022-10-30T05:57:41.061Z,60.14
2022-10-30T05:58:41.053Z,61.77
2022-10-30T05:59:41.044Z,70.75
2022-10-30T06:00:41.067Z,66.14
2022-10-30T06:01:41.192Z,58.59
2022-10-30T06:02:41.062Z,64.23
2022-10-30T06:03:41.110Z,65.27
2022-10-30T06:04:41.020Z,61.77
2022-10-30T06:05:41.022Z,59.88
2022-10-30T06:06:41.022Z,67.23
2022-10-30T06:07:40.990Z,64.36
2022-10-30T06:08:40.999Z,68.86
2022-10-30T06:09:40.984Z,59.63
2022-10-30T06:10:40.995Z,58.10
2022-10-30T06:11:40.999Z,64.32
2022-10-30T06:12:41.000Z,57.91
2022-10-30T06:13:40.943Z,58.91
2022-10-30T06:14:40.937Z,58.79
2022-10-30T06:15:40.938Z,58.63
2022-10-30T06:16:40.941Z,59.11
2022-10-30T06:17:40.966Z,69.29
2022-10-30T06:18:40.944Z,70.84
2022-10-30T06:19:40.931Z,60.20
2022-10-30T06:20:40.905Z,66.46
2022-10-30T06:21:40.897Z,69.88
2022-10-30T06:22:40.932Z,69.63
2022-10-30T06:23:40.901Z,62.35
2022-10-30T06:24:40.925Z,66.66
2022-10-30T06:25:41.605Z,71.08
2022-10-30T06:26:40.871Z,67.74
2022-10-30T06:27:40.874Z,65.83
2022-10-30T06:28:40.970Z,60.91
2022-10-30T06:29:40.847Z,64.22
2022-10-30T06:30:40.833Z,60.43
2022-10-30T06:31:41.857Z,70.95
2022-10-30T06:32:40.847Z,67.00
2022-10-30T06:33:40.937Z,61.86
2022-10-30T06:34:40.838Z,60.07
2022-10-30T06:35:40.824Z,67.71
2022-10-30T06:36:40.863Z,61.70
2022-10-30T06:37:40.816Z,62.65
2022-10-30T06:38:40.795Z,64.75
2022-10-30T06:39:40.896Z,66.20
2022-10-30T06:40:40.795Z,68.23
2022-10-30T06:41:40.784Z,66.54
2022-10-30T06:42:40.760Z,67.18
2022-10-30T06:43:40.761Z,72.38
2022-10-30T06:44:40.805Z,69.10
2022-10-30T06:45:40.750Z,61.32
2022-10-30T06:46:40.746Z,62.24
2022-10-30T06:47:40.746Z,69.61
2022-10-30T06:48:40.745Z,68.47
2022-10-30T06:49:40.729Z,68.40
2022-10-30T06:50:40.729Z,62.45
2022-10-30T06:51:40.697Z,64.02
2022-10-30T06:52:40.695Z,66.91
2022-10-30T06:53:40.689Z,71.27
2022-10-30T06:54:40.688Z,64.27
2022-10-30T06:55:40.799Z,68.68
2022-10-30T06:56:40.687Z,71.84
2022-10-30T06:57:40.679Z,70.44
2022-10-30T06:58:40.672Z,66.19
2022-10-30T06:59:40.655Z,66.07
2022-10-30T07:00:40.717Z,67.00
2022-10-30T07:01:40.790Z,64.16
2022-10-30T07:02:40.628Z,67.88
2022-10-30T07:03:40.648Z,74.09
2022-10-30T07:04:40.645Z,70.72
2022-10-30T07:05:40.631Z,67.01
2022-10-30T07:06:40.647Z,62.47
2022-10-30T07:07:40.643Z,67.68
2022-10-30T07:08:40.591Z,64.42
2022-10-30T07:09:40.637Z,70.47
2022-10-30T07:10:40.592Z,69.62
2022-10-30T07:11:41.606Z,64.06
2022-10-30T07:12:40.591Z,65.47
2022-10-30T07:13:40.593Z,72.13
2022-10-30T07:14:40.576Z,65.93
2022-10-30T07:16:40.572Z,66.75
2022-10-30T07:17:42.262Z,66.14
2022-10-30T07:18:40.587Z,65.07
2022-10-30T07:19:40.538Z,66.60
2022-10-30T07:20:40.515Z,61.75
2022-10-30T07:21:40.515Z,61.06
2022-10-30T07:22:40.675Z,72.38
2022-10-30T07:23:40.525Z,65.15
2022-10-30T07:24:40.511Z,62.69
2022-10-30T07:25:40.487Z,73.59
2022-10-30T07:26:40.502Z,74.60
2022-10-30T07:27:40.476Z,69.10
2022-10-30T07:28:40.503Z,66.52
2022-10-30T07:29:41.466Z,67.89
2022-10-30T07:30:40.469Z,76.61
2022-10-30T07:31:42.712Z,73.50
2022-10-30T07:32:42.447Z,69.58
2022-10-30T07:33:40.579Z,72.60
2022-10-30T07:34:40.458Z,72.66
2022-10-30T07:35:40.461Z,70.27
2022-10-30T07:36:40.436Z,70.26
2022-10-30T07:37:40.430Z,64.41
2022-10-30T07:38:40.421Z,72.35
2022-10-30T07:39:40.433Z,69.93
2022-10-30T07:40:40.415Z,69.04
2022-10-30T07:41:40.392Z,62.69
2022-10-30T07:42:40.398Z,60.74
2022-10-30T07:43:40.401Z,66.29
2022-10-30T07:44:40.501Z,63.09
2022-10-30T07:45:40.387Z,62.91
2022-10-30T07:46:40.389Z,66.95
2022-10-30T07:47:40.340Z,70.65
2022-10-30T07:48:41.352Z,71.72
2022-10-30T07:49:40.373Z,71.81
2022-10-30T07:50:40.405Z,71.51
2022-10-30T07:51:40.343Z,68.18
2022-10-30T07:52:40.342Z,71.98
2022-10-30T07:53:40.370Z,65.78
2022-10-30T07:54:40.318Z,64.40
2022-10-30T07:55:40.445Z,63.90
2022-10-30T07:56:40.342Z,57.57
2022-10-30T07:57:40.287Z,58.70
2022-10-30T07:58:45.216Z,69.81
2022-10-30T07:59:42.350Z,63.54
2022-10-30T08:00:40.300Z,74.99
2022-10-30T08:01:40.519Z,68.83
2022-10-30T08:02:40.513Z,61.65
2022-10-30T08:03:40.260Z,65.43
2022-10-30T08:04:40.300Z,65.00
2022-10-30T08:05:40.270Z,60.48
2022-10-30T08:06:40.323Z,58.16
2022-10-30T08:07:40.242Z,73.34
2022-10-30T08:08:43.113Z,66.01
2022-10-30T08:09:40.233Z,75.17
2022-10-30T08:10:40.233Z,68.04
2022-10-30T08:11:40.222Z,70.19
2022-10-30T08:12:40.247Z,60.04
2022-10-30T08:13:40.223Z,75.98
2022-10-30T08:14:40.197Z,63.50
2022-10-30T08:15:40.195Z,74.52
2022-10-30T08:16:40.184Z,67.02
2022-10-30T08:17:40.203Z,69.99
2022-10-30T08:18:40.208Z,70.60
2022-10-30T08:19:40.166Z,73.04
2022-10-30T08:20:40.211Z,63.47
2022-10-30T08:21:40.153Z,70.75
2022-10-30T08:22:40.140Z,69.39
2022-10-30T08:23:40.149Z,71.12
2022-10-30T08:24:40.138Z,67.28
2022-10-30T08:25:40.124Z,71.25
2022-10-30T08:26:40.120Z,62.27
2022-10-30T08:27:40.118Z,62.88
2022-10-30T08:28:40.252Z,63.26
2022-10-30T08:29:40.090Z,62.82
2022-10-30T08:30:40.104Z,70.35
2022-10-30T08:31:40.135Z,73.90
2022-10-30T08:32:40.080Z,72.26
2022-10-30T08:33:40.098Z,70.60
2022-10-30T08:34:40.207Z,70.57
2022-10-30T08:35:40.069Z,70.17
2022-10-30T08:36:42.664Z,71.30
2022-10-30T08:37:40.046Z,69.18
2022-10-30T08:38:40.045Z,67.20
2022-10-30T08:39:40.070Z,74.00
2022-10-30T08:40:40.046Z,57.41
2022-10-30T08:41:40.044Z,64.05
2022-10-30T08:42:40.040Z,67.80
2022-10-30T08:43:40.033Z,63.28
2022-10-30T08:44:40.062Z,62.17
2022-10-30T08:45:40.127Z,72.16
2022-10-30T08:46:40.035Z,69.82
2022-10-30T08:47:40.024Z,68.71
2022-10-30T08:48:40.009Z,74.28
2022-10-30T08:49:39.996Z,71.61
2022-10-30T08:50:40.157Z,69.88
2022-10-30T08:51:39.996Z,78.34
2022-10-30T08:52:40.021Z,70.62
2022-10-30T08:53:39.973Z,76.17
2022-10-30T08:54:40.048Z,67.65
2022-10-30T08:55:39.978Z,71.42
2022-10-30T08:56:40.081Z,73.22
2022-10-30T08:57:40.008Z,72.27
2022-10-30T08:58:39.951Z,74.42
2022-10-30T08:59:39.946Z,74.73
2022-10-30T09:00:39.919Z,72.18
2022-10-30T09:01:40.127Z,68.54
2022-10-30T09:02:40.105Z,65.79
2022-10-30T09:03:39.904Z,69.67
2022-10-30T09:04:39.900Z,75.94
2022-10-30T09:05:40.897Z,66.32
2022-10-30T09:06:39.884Z,68.20
2022-10-30T09:07:39.911Z,68.97
2022-10-30T09:08:39.895Z,69.66
2022-10-30T09:09:39.874Z,67.86
2022-10-30T09:10:39.875Z,65.62
2022-10-30T09:11:39.882Z,72.01
2022-10-30T09:12:39.999Z,71.51
2022-10-30T09:13:39.862Z,71.05
2022-10-30T09:14:39.860Z,71.24
2022-10-30T09:15:39.862Z,63.72
2022-10-30T09:16:39.856Z,73.47
2022-10-30T09:17:39.826Z,67.36
2022-10-30T09:18:39.924Z,69.80
2022-10-30T09:19:39.876Z,74.50
2022-10-30T09:20:39.793Z,66.53
2022-10-30T09:21:39.818Z,65.86
2022-10-30T09:22:39.802Z,65.35
2022-10-30T09:23:39.831Z,70.79
2022-10-30T09:24:39.805Z,69.60
2022-10-30T09:25:39.786Z,60.55
2022-10-30T09:26:39.788Z,61.16
2022-10-30T09:27:39.789Z,76.05
2022-10-30T09:28:39.769Z,65.57
2022-10-30T09:29:39.794Z,66.23
2022-10-30T09:30:39.768Z,67.79
2022-10-30T09:31:39.757Z,71.86
2022-10-30T09:32:39.773Z,68.50
2022-10-30T09:33:39.750Z,73.67
2022-10-30T09:34:39.859Z,58.51
2022-10-30T09:35:39.751Z,68.61
2022-10-30T09:36:39.728Z,73.71
2022-10-30T09:37:39.728Z,67.22
2022-10-30T09:38:39.765Z,69.29
2022-10-30T09:39:39.734Z,62.38
2022-10-30T09:40:39.829Z,69.24
2022-10-30T09:41:39.689Z,65.16
2022-10-30T09:42:39.704Z,65.40
2022-10-30T09:43:39.691Z,66.71
2022-10-30T09:44:39.688Z,67.90
2022-10-30T09:45:39.714Z,67.10
2022-10-30T09:46:39.683Z,68.39
2022-10-30T09:47:39.695Z,72.19
2022-10-30T09:48:39.678Z,68.94
2022-10-30T09:49:39.676Z,69.85
2022-10-30T09:50:39.896Z,67.10
2022-10-30T09:51:39.673Z,70.56
2022-10-30T09:52:39.653Z,66.91
2022-10-30T09:53:39.654Z,67.93
2022-10-30T09:54:39.654Z,68.00
2022-10-30T09:55:39.632Z,64.32
2022-10-30T09:56:39.658Z,63.53
2022-10-30T09:57:39.624Z,64.74
2022-10-30T09:58:39.626Z,72.20
2022-10-30T09:59:39.629Z,65.04
2022-10-30T10:00:39.614Z,65.96
2022-10-30T10:01:39.795Z,56.03
2022-10-30T10:02:39.763Z,68.64
2022-10-30T10:03:39.704Z,65.02
2022-10-30T10:04:39.593Z,64.69
2022-10-30T10:05:39.588Z,60.96
2022-10-30T10:06:39.588Z,67.69
2022-10-30T10:07:39.614Z,63.77
2022-10-30T10:08:39.578Z,74.17
2022-10-30T10:09:39.602Z,65.48
2022-10-30T10:10:39.560Z,68.60
2022-10-30T10:11:39.584Z,70.86
2022-10-30T10:12:39.553Z,59.48
2022-10-30T10:13:39.666Z,67.13
2022-10-30T10:14:39.552Z,62.65
2022-10-30T10:15:39.590Z,68.08
2022-10-30T10:16:39.563Z,69.16
2022-10-30T10:17:39.544Z,67.42
2022-10-30T10:18:39.656Z,71.52
2022-10-30T10:19:39.513Z,67.77
2022-10-30T10:20:39.548Z,72.05
2022-10-30T10:21:39.521Z,64.84
2022-10-30T10:22:39.509Z,71.90
2022-10-30T10:23:39.509Z,64.32
2022-10-30T10:24:39.611Z,72.30
2022-10-30T10:25:39.502Z,67.65
2022-10-30T10:26:39.525Z,69.08
2022-10-30T10:27:39.512Z,72.53
2022-10-30T10:28:39.500Z,61.00
2022-10-30T10:29:39.515Z,62.68
2022-10-30T10:30:39.521Z,73.94
2022-10-30T10:31:39.504Z,70.22
2022-10-30T10:32:39.497Z,72.01
2022-10-30T10:33:39.481Z,70.85
2022-10-30T10:34:39.479Z,70.34
2022-10-30T10:35:39.605Z,72.57
2022-10-30T10:36:39.512Z,72.78
2022-10-30T10:37:39.459Z,63.52
2022-10-30T10:38:39.476Z,64.35
2022-10-30T10:39:39.472Z,72.58
2022-10-30T10:40:39.604Z,72.01
2022-10-30T10:41:39.473Z,71.65
2022-10-30T10:42:39.471Z,66.02
2022-10-30T10:43:39.451Z,67.33
2022-10-30T10:44:39.439Z,70.35
2022-10-30T10:45:39.465Z,74.30
2022-10-30T10:46:39.548Z,69.85
2022-10-30T10:47:39.468Z,69.81
2022-10-30T10:48:39.413Z,68.44
2022-10-30T10:49:40.306Z,69.04
2022-10-30T10:50:39.416Z,70.79
2022-10-30T10:51:39.518Z,68.01
2022-10-30T10:52:39.406Z,68.19
2022-10-30T10:53:39.402Z,71.53
2022-10-30T10:54:39.400Z,69.65
2022-10-30T10:55:39.376Z,69.55
2022-10-30T10:56:39.387Z,70.87
2022-10-30T10:57:39.512Z,73.27
2022-10-30T10:58:39.366Z,71.96
2022-10-30T10:59:39.380Z,63.96
2022-10-30T11:00:39.368Z,74.00
2022-10-30T11:01:39.433Z,71.07
2022-10-30T11:02:39.481Z,72.06
2022-10-30T11:03:39.349Z,69.47
2022-10-30T11:04:39.358Z,71.45
2022-10-30T11:05:39.376Z,75.96
2022-10-30T11:06:39.339Z,75.86
2022-10-30T11:07:39.317Z,68.22
2022-10-30T11:08:39.463Z,75.16
2022-10-30T11:09:39.331Z,66.25
2022-10-30T11:10:39.313Z,71.14
2022-10-30T11:11:39.293Z,78.20
2022-10-30T11:12:39.301Z,76.92
2022-10-30T11:13:39.400Z,75.64
2022-10-30T11:14:39.320Z,73.29
2022-10-30T11:15:39.280Z,72.96
2022-10-30T11:16:39.283Z,71.86
2022-10-30T11:17:39.286Z,68.60
2022-10-30T11:18:39.263Z,68.96
2022-10-30T11:19:39.284Z,72.32
2022-10-30T11:20:39.239Z,71.85
2022-10-30T11:21:39.241Z,70.38
2022-10-30T11:22:39.233Z,70.21
2022-10-30T11:23:39.251Z,74.08
2022-10-30T11:24:39.219Z,70.88
2022-10-30T11:25:39.214Z,77.17
2022-10-30T11:26:39.210Z,67.91
2022-10-30T11:27:39.225Z,71.61
2022-10-30T11:28:39.198Z,62.19
2022-10-30T11:29:39.203Z,74.21
2022-10-30T11:30:39.219Z,65.27
2022-10-30T11:31:39.196Z,70.12
2022-10-30T11:32:39.243Z,56.16
2022-10-30T11:33:39.181Z,73.84
2022-10-30T11:34:42.661Z,75.54
2022-10-30T11:35:41.303Z,69.66
2022-10-30T11:36:39.172Z,70.73
2022-10-30T11:37:39.168Z,72.05
2022-10-30T11:38:39.170Z,68.80
2022-10-30T11:39:39.164Z,69.77
2022-10-30T11:40:39.155Z,74.07
2022-10-30T11:41:39.284Z,71.98
2022-10-30T11:42:39.154Z,72.10
2022-10-30T11:43:39.144Z,65.25
2022-10-30T11:44:39.138Z,74.00
2022-10-30T11:45:39.144Z,72.60
2022-10-30T11:46:39.150Z,70.93
2022-10-30T11:47:39.126Z,69.51
2022-10-30T11:48:39.103Z,66.55
2022-10-30T11:49:39.090Z,77.48
2022-10-30T11:50:39.107Z,66.76
2022-10-30T11:51:39.144Z,78.43
2022-10-30T11:52:39.119Z,69.65
2022-10-30T11:53:39.083Z,74.11
2022-10-30T11:54:39.071Z,71.64
2022-10-30T11:55:39.076Z,72.80
2022-10-30T11:56:39.059Z,75.30
2022-10-30T11:57:39.094Z,69.66
2022-10-30T11:58:39.059Z,74.13
2022-10-30T11:59:39.052Z,79.55
2022-10-30T12:00:39.044Z,72.45
2022-10-30T12:01:39.312Z,69.07
2022-10-30T12:02:39.094Z,76.73
2022-10-30T12:03:39.041Z,69.39
2022-10-30T12:04:39.040Z,65.28
2022-10-30T12:05:39.052Z,64.62
2022-10-30T12:06:39.022Z,73.44
2022-10-30T12:07:39.024Z,73.53
2022-10-30T12:08:39.137Z,70.20
2022-10-30T12:09:39.014Z,66.16
2022-10-30T12:10:39.015Z,78.08
2022-10-30T12:11:39.006Z,63.19
2022-10-30T12:12:39.003Z,68.88
2022-10-30T12:13:38.976Z,75.25
2022-10-30T12:14:40.092Z,70.92
2022-10-30T12:15:38.985Z,76.72
2022-10-30T12:16:38.976Z,74.71
2022-10-30T12:17:38.985Z,75.19
2022-10-30T12:18:38.987Z,70.74
2022-10-30T12:19:38.970Z,75.56
2022-10-30T12:20:38.995Z,75.59
2022-10-30T12:21:38.957Z,71.46
2022-10-30T12:22:38.946Z,74.96
2022-10-30T12:23:38.964Z,64.82
2022-10-30T12:24:38.944Z,73.83
2022-10-30T12:25:38.963Z,74.36
2022-10-30T12:26:38.922Z,73.55
2022-10-30T12:27:38.929Z,77.21
2022-10-30T12:28:38.900Z,77.51
2022-10-30T12:30:41.017Z,70.49
2022-10-30T12:31:38.911Z,70.22
2022-10-30T12:32:39.736Z,65.36
2022-10-30T12:33:38.904Z,77.14
2022-10-30T12:34:38.898Z,73.65
2022-10-30T12:35:38.900Z,72.11
2022-10-30T12:36:38.996Z,70.92
2022-10-30T12:37:38.886Z,76.43
2022-10-30T12:38:38.902Z,77.05
2022-10-30T12:39:38.889Z,78.16
2022-10-30T12:40:38.864Z,68.51
2022-10-30T12:41:38.917Z,69.72
2022-10-30T12:42:38.938Z,65.86
2022-10-30T12:43:38.838Z,70.57
2022-10-30T12:44:38.848Z,67.12
2022-10-30T12:45:38.857Z,69.45
2022-10-30T12:46:38.829Z,74.74
2022-10-30T12:47:38.923Z,71.20
2022-10-30T12:48:38.808Z,68.09
2022-10-30T12:49:38.820Z,62.21
2022-10-30T12:50:38.816Z,67.14
2022-10-30T12:51:38.822Z,73.48
2022-10-30T12:52:38.911Z,67.74
2022-10-30T12:53:38.806Z,70.21
2022-10-30T12:54:38.802Z,64.11
2022-10-30T12:55:38.789Z,67.84
2022-10-30T12:56:38.786Z,73.90
2022-10-30T12:57:38.765Z,75.18
2022-10-30T12:58:38.903Z,74.25